Time;durP1;ratioP1;P1;durP2;ratioP2;P2;SDS_P1;SDS_P2;PMS_P1;PMS_P2;Temp;Humidity;BMP_temperature;BMP_pressure;BME280_temperature;BME280_humidity;BME280_pressure;Samples;Min_cycle;Max_cycle;Signal;HPM_P1;HPM_P2
2023/04/08 00:01:08;;;;;;;3.10;2.00;;;5.10;99.90;;;;;;6205159;23;20722;-86
2023/04/08 00:03:34;;;;;;;2.30;1.67;;;5.10;99.90;;;;;;6205245;23;20198;-85
2023/04/08 00:06:01;;;;;;;5.30;3.17;;;5.10;99.90;;;;;;6205467;23;20189;-85
2023/04/08 00:08:27;;;;;;;1.97;1.73;;;5.10;99.90;;;;;;6205026;23;20180;-86
2023/04/08 00:10:53;;;;;;;1.67;1.57;;;5.00;99.90;;;;;;6204672;23;20633;-86
2023/04/08 00:13:19;;;;;;;1.70;1.57;;;5.00;99.90;;;;;;6205572;23;20519;-85
2023/04/08 00:15:45;;;;;;;2.43;2.03;;;5.00;99.90;;;;;;6203069;23;20405;-85
2023/04/08 00:18:11;;;;;;;1.50;1.40;;;4.90;99.90;;;;;;6204004;23;20190;-85
2023/04/08 00:20:36;;;;;;;2.80;1.40;;;4.80;99.90;;;;;;6203011;23;20201;-87
2023/04/08 00:23:02;;;;;;;3.03;2.37;;;4.80;99.90;;;;;;6229498;23;20197;-87
2023/04/08 00:25:28;;;;;;;1.63;1.53;;;4.80;99.90;;;;;;6228829;23;20202;-85
2023/04/08 00:27:53;;;;;;;1.80;1.70;;;4.80;99.90;;;;;;6205331;23;20190;-85
2023/04/08 00:30:20;;;;;;;2.23;1.07;;;4.80;99.90;;;;;;6229045;23;20492;-85
2023/04/08 00:32:48;;;;;;;1.53;1.47;;;4.70;99.90;;;;;;6178212;23;20216;-88
2023/04/08 00:35:14;;;;;;;1.47;1.40;;;4.70;99.90;;;;;;6205531;23;20158;-87
2023/04/08 00:37:40;;;;;;;1.37;1.27;;;4.70;99.90;;;;;;6203470;23;20690;-85
2023/04/08 00:40:06;;;;;;;1.73;1.63;;;4.70;99.90;;;;;;6205726;23;20193;-85
2023/04/08 00:42:32;;;;;;;1.67;1.57;;;4.70;99.90;;;;;;6228559;23;20200;-88
2023/04/08 00:44:58;;;;;;;1.83;1.73;;;4.60;99.90;;;;;;6203482;23;20268;-84
2023/04/08 00:47:23;;;;;;;5.33;2.57;;;4.50;99.90;;;;;;6203288;23;20173;-84
2023/04/08 00:49:49;;;;;;;3.30;1.90;;;4.50;99.90;;;;;;6204878;23;20162;-85
2023/04/08 00:52:15;;;;;;;2.80;2.60;;;4.50;99.90;;;;;;6203223;23;20194;-85
2023/04/08 00:54:41;;;;;;;3.03;2.73;;;4.50;99.90;;;;;;6203144;23;20647;-89
2023/04/08 00:57:07;;;;;;;3.40;2.97;;;4.50;99.90;;;;;;6203614;23;20526;-84
2023/04/08 00:59:34;;;;;;;1.90;1.80;;;4.50;99.90;;;;;;6227614;23;20162;-84
2023/04/08 01:02:06;;;;;;;1.30;1.30;;;4.40;99.90;;;;;;6205361;23;20176;-85
2023/04/08 01:05:02;;;;;;;4.80;4.33;;;4.40;99.90;;;;;;6203904;23;20248;-84
2023/04/08 01:07:32;;;;;;;2.80;1.70;;;4.40;99.90;;;;;;6204510;23;20256;-88
2023/04/08 01:10:16;;;;;;;2.13;2.03;;;4.40;99.90;;;;;;6205101;23;20200;-87
2023/04/08 01:12:54;;;;;;;1.70;1.70;;;4.30;99.90;;;;;;6228068;23;20228;-85
2023/04/08 01:15:23;;;;;;;5.83;2.23;;;4.30;99.90;;;;;;6228363;23;20211;-84
2023/04/08 01:17:52;;;;;;;2.80;2.33;;;4.20;99.90;;;;;;6204448;23;20217;-85
2023/04/08 01:20:18;;;;;;;1.73;1.13;;;4.20;99.90;;;;;;6205061;23;20193;-86
2023/04/08 01:22:53;;;;;;;1.90;1.80;;;4.20;99.90;;;;;;6203427;23;20679;-88
2023/04/08 01:25:23;;;;;;;1.70;1.60;;;4.20;99.90;;;;;;6228246;23;20602;-84
2023/04/08 01:27:51;;;;;;;1.60;1.40;;;4.20;99.90;;;;;;6204420;23;20194;-84
2023/04/08 01:30:19;;;;;;;2.40;2.27;;;4.20;99.90;;;;;;6204138;23;20514;-85
2023/04/08 01:32:46;;;;;;;2.10;1.97;;;4.20;99.90;;;;;;6204213;23;20186;-86
2023/04/08 01:35:14;;;;;;;3.93;2.63;;;4.20;99.90;;;;;;6205240;23;20158;-86
2023/04/08 01:37:42;;;;;;;1.77;1.67;;;4.10;99.90;;;;;;6204895;23;20194;-87
2023/04/08 01:40:09;;;;;;;3.10;2.40;;;4.10;99.90;;;;;;6204180;23;20396;-84
2023/04/08 01:42:35;;;;;;;1.97;1.87;;;4.10;99.90;;;;;;6202402;23;20640;-86
2023/04/08 01:45:03;;;;;;;2.93;2.70;;;4.10;99.90;;;;;;6178575;23;20577;-89
2023/04/08 01:47:30;;;;;;;3.03;2.63;;;4.10;99.90;;;;;;6228177;23;20154;-89
2023/04/08 01:49:57;;;;;;;3.17;2.97;;;4.10;99.90;;;;;;6205051;23;20181;-85
2023/04/08 01:52:25;;;;;;;3.43;3.23;;;4.10;99.90;;;;;;6202958;23;20201;-85
2023/04/08 01:54:54;;;;;;;4.23;3.93;;;4.00;99.90;;;;;;6202811;23;20244;-85
2023/04/08 01:57:27;;;;;;;2.53;2.43;;;4.00;99.90;;;;;;6227899;23;20202;-89
2023/04/08 01:59:58;;;;;;;2.97;2.77;;;4.00;99.90;;;;;;6205344;23;20197;-85
2023/04/08 02:02:26;;;;;;;1.43;1.30;;;3.90;99.90;;;;;;6206273;23;20142;-85
2023/04/08 02:04:53;;;;;;;4.17;2.50;;;3.90;99.90;;;;;;6229926;23;20578;-85
2023/04/08 02:07:19;;;;;;;2.30;2.10;;;3.90;99.90;;;;;;6206029;23;20664;-86
2023/04/08 02:09:45;;;;;;;2.93;2.67;;;3.90;99.90;;;;;;6230033;23;20629;-85
2023/04/08 02:12:11;;;;;;;3.03;2.17;;;3.80;99.90;;;;;;6230175;23;20192;-86
2023/04/08 02:14:37;;;;;;;3.60;3.40;;;3.80;99.90;;;;;;6205012;23;20154;-85
2023/04/08 02:17:12;;;;;;;2.70;2.50;;;3.80;99.90;;;;;;6230680;23;20213;-85
2023/04/08 02:20:05;;;;;;;1.87;1.77;;;3.80;99.90;;;;;;6228998;23;20803;-85
2023/04/08 02:22:48;;;;;;;2.40;2.30;;;3.80;99.90;;;;;;6229596;23;20194;-85
2023/04/08 02:25:16;;;;;;;2.50;2.40;;;3.70;99.90;;;;;;6205825;23;20687;-86
2023/04/08 02:27:44;;;;;;;3.10;2.67;;;3.70;99.90;;;;;;6229948;23;20696;-88
2023/04/08 02:30:12;;;;;;;2.23;2.13;;;3.70;99.90;;;;;;6206283;23;20226;-85
2023/04/08 02:32:38;;;;;;;3.27;1.97;;;3.60;99.90;;;;;;6205660;23;20154;-85
2023/04/08 02:35:05;;;;;;;2.10;1.90;;;3.50;99.90;;;;;;6204993;23;20439;-85
2023/04/08 02:37:31;;;;;;;1.37;1.37;;;3.50;99.90;;;;;;6206356;23;20273;-87
2023/04/08 02:39:58;;;;;;;2.43;2.23;;;3.50;99.90;;;;;;6204377;23;20190;-84
2023/04/08 02:42:23;;;;;;;4.07;2.90;;;3.50;99.90;;;;;;6229680;23;20461;-83
2023/04/08 02:44:50;;;;;;;5.23;2.47;;;3.30;99.90;;;;;;6206037;23;20185;-84
2023/04/08 02:47:16;;;;;;;4.13;2.13;;;3.30;99.90;;;;;;6229807;23;20617;-85
2023/04/08 02:49:42;;;;;;;2.30;2.13;;;3.40;99.90;;;;;;6205558;23;20428;-87
2023/04/08 02:52:07;;;;;;;3.87;3.07;;;3.40;99.90;;;;;;6205936;23;20197;-85
2023/04/08 02:54:33;;;;;;;1.57;1.57;;;3.40;99.90;;;;;;6205575;23;20524;-85
2023/04/08 02:56:59;;;;;;;2.27;2.17;;;3.50;99.90;;;;;;6204412;23;20281;-86
2023/04/08 02:59:25;;;;;;;3.83;2.87;;;3.50;99.90;;;;;;6204491;23;20573;-86
2023/04/08 03:01:50;;;;;;;1.87;1.67;;;3.50;99.90;;;;;;6205042;23;20204;-86
2023/04/08 03:04:16;;;;;;;6.97;4.60;;;3.50;99.90;;;;;;6229751;23;20218;-85
2023/04/08 03:06:42;;;;;;;5.03;4.63;;;3.50;99.90;;;;;;6204328;23;20285;-85
2023/04/08 03:09:08;;;;;;;3.17;2.87;;;3.50;99.90;;;;;;6206445;23;20195;-85
2023/04/08 03:11:34;;;;;;;4.73;2.53;;;3.50;99.90;;;;;;6205245;23;20181;-86
2023/04/08 03:14:00;;;;;;;4.47;2.67;;;3.50;99.90;;;;;;6180326;23;20162;-88
2023/04/08 03:16:25;;;;;;;2.93;2.50;;;3.40;99.90;;;;;;6204220;23;20201;-85
2023/04/08 03:18:51;;;;;;;2.07;1.97;;;3.40;99.90;;;;;;6229314;23;20859;-85
2023/04/08 03:21:17;;;;;;;2.33;1.70;;;3.40;99.90;;;;;;6204136;23;20201;-86
2023/04/08 03:23:44;;;;;;;3.93;3.60;;;3.40;99.90;;;;;;6229306;23;20190;-85
2023/04/08 03:26:10;;;;;;;3.37;2.63;;;3.40;99.90;;;;;;6206742;23;20328;-85
2023/04/08 03:28:36;;;;;;;1.83;1.73;;;3.50;99.90;;;;;;6205521;23;20218;-85
2023/04/08 03:31:03;;;;;;;2.70;2.57;;;3.50;99.90;;;;;;6204098;23;20201;-87
2023/04/08 03:33:29;;;;;;;2.70;2.50;;;3.50;99.90;;;;;;6229641;23;20662;-84
2023/04/08 03:35:55;;;;;;;2.73;2.57;;;3.50;99.90;;;;;;6205706;23;20206;-84
2023/04/08 03:38:21;;;;;;;5.50;4.43;;;3.50;99.90;;;;;;6204196;23;20154;-85
2023/04/08 03:40:46;;;;;;;2.23;1.73;;;3.50;99.90;;;;;;6206420;23;20162;-88
2023/04/08 03:43:13;;;;;;;2.90;2.70;;;3.40;99.90;;;;;;6228993;23;20300;-86
2023/04/08 03:45:39;;;;;;;2.93;2.60;;;3.30;99.90;;;;;;6203575;23;20233;-87
2023/04/08 03:48:05;;;;;;;3.40;3.07;;;3.20;99.90;;;;;;6206279;23;20194;-86
2023/04/08 03:50:31;;;;;;;2.13;2.03;;;3.30;99.90;;;;;;6205120;23;20161;-86
2023/04/08 03:52:57;;;;;;;6.50;2.67;;;3.30;99.90;;;;;;6230158;23;20150;-85
2023/04/08 03:55:22;;;;;;;3.90;3.67;;;3.40;99.90;;;;;;6205396;23;20194;-85
2023/04/08 03:57:48;;;;;;;2.00;1.90;;;3.40;99.90;;;;;;6178541;23;20209;-88
2023/04/08 04:00:14;;;;;;;3.17;2.00;;;3.40;99.90;;;;;;6204404;23;20217;-86
2023/04/08 04:02:40;;;;;;;3.50;3.23;;;3.40;99.90;;;;;;6205202;23;20194;-85
2023/04/08 04:05:06;;;;;;;4.00;2.00;;;3.40;99.90;;;;;;6204729;23;20154;-85
2023/04/08 04:07:31;;;;;;;3.23;2.93;;;3.40;99.90;;;;;;6203914;23;20516;-84
2023/04/08 04:09:57;;;;;;;4.87;3.40;;;3.40;99.90;;;;;;6183351;23;20191;-87
2023/04/08 04:12:23;;;;;;;4.00;3.40;;;3.40;99.90;;;;;;6199027;23;20269;-85
2023/04/08 04:14:49;;;;;;;3.70;3.43;;;3.40;99.90;;;;;;6150261;23;20221;-85
2023/04/08 04:17:15;;;;;;;2.83;2.63;;;3.40;99.90;;;;;;6175882;23;20182;-86
2023/04/08 04:19:41;;;;;;;5.07;3.00;;;3.40;99.90;;;;;;6172598;23;20190;-85
2023/04/08 04:22:06;;;;;;;2.80;2.60;;;3.50;99.90;;;;;;6170718;23;20201;-84
2023/04/08 04:24:32;;;;;;;3.17;3.00;;;3.50;99.90;;;;;;6205355;23;20193;-85
2023/04/08 04:26:58;;;;;;;4.23;3.43;;;3.50;99.90;;;;;;6203279;23;20198;-85
2023/04/08 04:29:24;;;;;;;4.40;3.67;;;3.50;99.90;;;;;;6203348;23;21089;-87
2023/04/08 04:31:49;;;;;;;7.73;4.17;;;3.50;99.90;;;;;;6205694;23;20481;-86
2023/04/08 04:34:16;;;;;;;2.47;2.27;;;3.40;99.90;;;;;;6203584;23;20198;-86
2023/04/08 04:36:42;;;;;;;5.20;3.60;;;3.40;99.90;;;;;;6178871;23;20535;-86
2023/04/08 04:39:08;;;;;;;4.93;3.27;;;3.40;99.90;;;;;;6204197;23;20194;-84
2023/04/08 04:41:37;;;;;;;2.20;2.10;;;3.40;99.90;;;;;;6228483;23;20654;-88
2023/04/08 04:44:03;;;;;;;3.50;3.27;;;3.50;99.90;;;;;;6229810;23;20590;-86
2023/04/08 04:46:29;;;;;;;2.50;2.33;;;3.50;99.90;;;;;;6205722;23;20216;-85
2023/04/08 04:48:55;;;;;;;2.40;2.17;;;3.50;99.90;;;;;;6204681;23;20198;-88
2023/04/08 04:51:21;;;;;;;3.43;3.00;;;3.60;99.90;;;;;;6205062;23;20185;-84
2023/04/08 04:53:48;;;;;;;4.23;3.47;;;3.50;99.90;;;;;;6202263;23;20560;-84
2023/04/08 04:56:14;;;;;;;4.23;3.87;;;3.40;99.90;;;;;;6203323;23;20184;-85
2023/04/08 04:58:40;;;;;;;4.97;3.70;;;3.50;99.90;;;;;;6228895;23;20198;-86
2023/04/08 05:01:09;;;;;;;1.87;1.77;;;3.50;99.90;;;;;;6205294;23;20224;-85
2023/04/08 05:03:35;;;;;;;2.53;2.40;;;3.60;99.90;;;;;;6204803;23;20452;-86
2023/04/08 05:06:01;;;;;;;5.50;4.87;;;3.60;99.90;;;;;;6203292;23;20550;-86
2023/04/08 05:08:27;;;;;;;4.63;3.83;;;3.60;99.90;;;;;;6203970;23;20783;-86
2023/04/08 05:10:54;;;;;;;5.77;3.30;;;3.60;99.90;;;;;;6204260;23;20162;-90
2023/04/08 05:13:20;;;;;;;4.27;3.97;;;3.50;99.90;;;;;;6204220;23;20185;-87
2023/04/08 05:15:46;;;;;;;2.60;2.23;;;3.60;99.90;;;;;;6203097;23;20517;-85
2023/04/08 05:18:12;;;;;;;4.00;2.77;;;3.60;99.90;;;;;;6204611;23;20272;-90
2023/04/08 05:20:40;;;;;;;6.13;4.80;;;3.90;99.90;;;;;;6228518;23;20200;-86
2023/04/08 05:23:07;;;;;;;4.50;4.07;;;4.30;99.90;;;;;;6203825;23;20166;-87
2023/04/08 05:25:33;;;;;;;6.03;3.97;;;4.80;99.90;;;;;;6205154;23;20208;-87
2023/04/08 05:27:59;;;;;;;5.33;4.53;;;5.20;99.90;;;;;;6205253;23;20197;-89
2023/04/08 05:30:25;;;;;;;4.83;3.97;;;5.20;99.90;;;;;;6228380;23;20285;-86
2023/04/08 05:32:50;;;;;;;5.63;3.87;;;5.80;99.90;;;;;;6203183;23;20190;-88
2023/04/08 05:35:16;;;;;;;10.67;5.07;;;6.10;99.90;;;;;;6205466;23;20189;-86
2023/04/08 05:37:42;;;;;;;8.63;4.87;;;6.00;99.90;;;;;;6204712;23;20228;-90
2023/04/08 05:40:08;;;;;;;4.00;3.63;;;6.10;99.90;;;;;;6178443;23;20198;-85
2023/04/08 05:42:34;;;;;;;6.60;4.80;;;6.30;99.90;;;;;;6228529;23;20193;-87
2023/04/08 05:45:00;;;;;;;7.07;5.13;;;6.40;99.90;;;;;;6228676;23;20193;-85
2023/04/08 05:47:26;;;;;;;6.83;5.47;;;6.50;99.90;;;;;;6202642;23;20174;-86
2023/04/08 05:49:52;;;;;;;7.20;6.47;;;7.10;99.90;;;;;;6205345;23;20154;-88
2023/04/08 05:52:17;;;;;;;6.97;6.27;;;7.80;99.90;;;;;;6203518;23;20194;-89
2023/04/08 05:54:43;;;;;;;8.93;5.27;;;8.70;99.90;;;;;;6202980;23;20243;-86
2023/04/08 05:57:09;;;;;;;7.40;5.77;;;9.80;99.90;;;;;;6228411;23;20679;-85
2023/04/08 05:59:35;;;;;;;8.13;6.47;;;11.00;99.90;;;;;;6203054;23;20477;-85
2023/04/08 06:02:01;;;;;;;10.27;6.93;;;12.30;99.90;;;;;;6202608;23;20213;-86
2023/04/08 06:04:26;;;;;;;13.00;8.60;;;12.80;99.90;;;;;;6227945;23;20194;-85
2023/04/08 06:06:52;;;;;;;6.90;5.03;;;13.20;99.90;;;;;;6201946;23;20186;-84
2023/04/08 06:09:18;;;;;;;8.70;6.50;;;13.30;99.90;;;;;;6202819;23;20617;-85
2023/04/08 06:11:46;;;;;;;9.60;6.00;;;13.50;99.90;;;;;;6203198;23;20630;-85
2023/04/08 06:14:11;;;;;;;5.43;4.60;;;13.90;99.90;;;;;;6179093;23;20170;-82
2023/04/08 06:16:37;;;;;;;9.97;4.37;;;13.20;99.90;;;;;;6228235;23;20637;-87
2023/04/08 06:19:03;;;;;;;5.73;4.60;;;14.20;99.90;;;;;;6204047;23;20637;-84
2023/04/08 06:21:29;;;;;;;7.73;5.37;;;15.20;99.90;;;;;;6200658;23;20271;-86
2023/04/08 06:23:55;;;;;;;5.53;5.07;;;15.90;99.90;;;;;;6204578;23;20621;-85
2023/04/08 06:26:21;;;;;;;9.27;6.50;;;15.20;99.90;;;;;;6203719;23;20574;-85
2023/04/08 06:28:46;;;;;;;7.97;4.73;;;14.10;99.90;;;;;;6228487;23;20574;-86
2023/04/08 06:31:12;;;;;;;7.10;5.07;;;13.20;99.90;;;;;;6203345;23;20200;-85
2023/04/08 06:33:38;;;;;;;8.83;5.00;;;12.40;99.90;;;;;;6228241;23;20204;-87
2023/04/08 06:36:05;;;;;;;5.23;4.27;;;11.20;99.90;;;;;;6204817;23;20531;-85
2023/04/08 06:38:31;;;;;;;8.83;5.50;;;10.60;99.90;;;;;;6204151;23;20477;-86
2023/04/08 06:41:15;;;;;;;8.00;6.13;;;10.60;99.90;;;;;;6201925;23;20154;-88
2023/04/08 06:43:41;;;;;;;6.70;4.17;;;11.30;99.90;;;;;;6204538;23;20194;-84
2023/04/08 06:46:06;;;;;;;8.83;4.00;;;11.50;99.90;;;;;;6205023;23;20205;-85
2023/04/08 06:48:33;;;;;;;8.00;4.67;;;11.40;99.90;;;;;;6204905;23;20383;-84
2023/04/08 06:51:00;;;;;;;5.73;4.97;;;11.60;99.90;;;;;;6204373;23;20609;-90
2023/04/08 06:53:28;;;;;;;5.53;3.67;;;12.00;99.90;;;;;;6229323;23;20162;-84
2023/04/08 06:55:54;;;;;;;9.43;5.10;;;12.50;99.90;;;;;;6230848;23;20178;-84
2023/04/08 06:58:19;;;;;;;7.43;5.73;;;12.70;99.90;;;;;;6206391;23;20686;-87
2023/04/08 07:00:46;;;;;;;7.97;6.07;;;14.00;99.90;;;;;;6203690;23;20243;-85
2023/04/08 07:03:12;;;;;;;10.10;5.17;;;14.10;99.90;;;;;;6204204;23;20216;-84
2023/04/08 07:05:38;;;;;;;4.17;3.77;;;14.10;99.90;;;;;;6206202;23;20166;-87
2023/04/08 07:08:05;;;;;;;7.00;4.67;;;13.70;99.90;;;;;;6205653;23;20180;-84
2023/04/08 07:10:31;;;;;;;5.10;4.27;;;12.30;99.90;;;;;;6229320;23;20631;-85
2023/04/08 07:12:57;;;;;;;9.60;5.37;;;11.20;99.90;;;;;;6229348;23;20194;-89
2023/04/08 07:15:22;;;;;;;7.93;5.23;;;10.70;99.90;;;;;;6229167;23;20194;-85
2023/04/08 07:17:48;;;;;;;9.27;4.63;;;10.20;99.90;;;;;;6204573;23;20190;-90
2023/04/08 07:20:14;;;;;;;9.53;5.10;;;10.20;99.90;;;;;;6203129;23;20203;-84
2023/04/08 07:22:40;;;;;;;6.17;3.93;;;10.10;99.90;;;;;;6204771;23;20230;-88
2023/04/08 07:25:06;;;;;;;13.80;5.67;;;10.00;99.90;;;;;;6204535;23;20236;-85
2023/04/08 07:27:35;;;;;;;8.90;4.10;;;9.60;99.90;;;;;;6205227;23;20205;-85
2023/04/08 07:30:01;;;;;;;7.43;4.37;;;9.30;99.90;;;;;;6204548;23;20217;-90
2023/04/08 07:32:27;;;;;;;4.73;3.67;;;8.90;99.90;;;;;;6180736;23;20201;-87
2023/04/08 07:34:53;;;;;;;4.73;3.60;;;8.90;99.90;;;;;;6205975;23;20158;-90
2023/04/08 07:37:19;;;;;;;6.83;3.57;;;8.70;99.90;;;;;;6204693;23;20210;-85
2023/04/08 07:39:45;;;;;;;6.60;3.30;;;8.60;99.90;;;;;;6205660;23;20197;-88
2023/04/08 07:42:11;;;;;;;7.03;4.93;;;8.80;99.90;;;;;;6230606;23;20186;-86
2023/04/08 07:44:37;;;;;;;4.00;2.97;;;8.80;99.90;;;;;;6204280;23;20169;-86
2023/04/08 07:47:03;;;;;;;5.00;4.03;;;8.70;99.90;;;;;;6179519;23;20162;-84
2023/04/08 07:49:29;;;;;;;3.90;3.50;;;8.50;99.90;;;;;;6179194;23;20714;-84
2023/04/08 07:51:54;;;;;;;5.77;3.17;;;8.50;99.90;;;;;;6204067;23;20205;-87
2023/04/08 07:54:20;;;;;;;5.60;2.90;;;8.50;99.90;;;;;;6205790;23;20186;-84
2023/04/08 07:56:46;;;;;;;9.97;3.37;;;8.40;99.90;;;;;;6204588;23;20517;-87
2023/04/08 07:59:12;;;;;;;6.03;3.33;;;8.60;99.90;;;;;;6204344;23;20155;-85
2023/04/08 08:01:37;;;;;;;4.00;3.63;;;9.30;99.90;;;;;;6205300;23;20198;-88
2023/04/08 08:04:03;;;;;;;4.47;3.63;;;10.10;99.90;;;;;;6205224;23;20228;-85
2023/04/08 08:06:32;;;;;;;3.90;2.80;;;10.60;99.90;;;;;;6205570;23;20556;-87
2023/04/08 08:08:58;;;;;;;3.40;2.40;;;10.80;99.90;;;;;;6204112;23;20289;-87
2023/04/08 08:11:25;;;;;;;3.60;2.90;;;10.40;99.90;;;;;;6204019;23;20193;-87
2023/04/08 08:13:51;;;;;;;2.73;2.53;;;9.70;99.90;;;;;;6206179;23;20220;-87
2023/04/08 08:16:17;;;;;;;3.97;2.77;;;9.60;99.90;;;;;;6203555;23;20288;-87
2023/04/08 08:18:42;;;;;;;5.43;3.60;;;9.50;99.90;;;;;;6228805;23;20201;-85
2023/04/08 08:21:08;;;;;;;5.23;2.93;;;9.50;99.90;;;;;;6178401;23;20221;-86
2023/04/08 08:23:34;;;;;;;4.00;2.80;;;9.30;99.90;;;;;;6205111;23;20170;-86
2023/04/08 08:26:01;;;;;;;5.03;3.07;;;8.80;99.90;;;;;;6229189;23;20162;-86
2023/04/08 08:28:27;;;;;;;3.40;2.50;;;8.80;99.90;;;;;;6203670;23;20194;-86
2023/04/08 08:30:53;;;;;;;3.97;3.07;;;8.90;99.90;;;;;;6205237;23;20285;-85
2023/04/08 08:33:19;;;;;;;4.63;2.97;;;9.10;99.90;;;;;;6229399;23;20874;-86
2023/04/08 08:35:45;;;;;;;3.43;2.63;;;9.20;99.90;;;;;;6203311;23;20240;-87
2023/04/08 08:38:12;;;;;;;4.77;3.03;;;9.00;99.90;;;;;;6204049;23;20399;-90
2023/04/08 08:40:38;;;;;;;2.60;1.90;;;8.90;99.90;;;;;;6228856;23;20738;-86
2023/04/08 08:43:04;;;;;;;4.10;3.70;;;8.80;99.90;;;;;;6227843;23;20200;-89
2023/04/08 08:45:31;;;;;;;4.30;2.70;;;8.70;99.90;;;;;;6205511;23;20194;-86
2023/04/08 08:47:57;;;;;;;8.07;3.27;;;8.70;99.90;;;;;;6228956;23;20272;-89
2023/04/08 08:50:23;;;;;;;3.47;3.10;;;8.70;99.90;;;;;;6229473;23;20544;-86
2023/04/08 08:52:50;;;;;;;3.83;2.60;;;8.60;99.90;;;;;;6203857;23;20158;-90
2023/04/08 08:55:20;;;;;;;5.50;2.97;;;8.50;99.90;;;;;;6204179;23;20277;-89
2023/04/08 08:57:50;;;;;;;2.73;2.13;;;8.60;99.90;;;;;;6229120;23;20700;-87
2023/04/08 09:00:17;;;;;;;3.17;2.13;;;8.80;99.90;;;;;;6228881;23;20751;-86
2023/04/08 09:02:43;;;;;;;6.93;3.53;;;8.60;99.90;;;;;;6228601;23;20197;-90
2023/04/08 09:05:09;;;;;;;4.00;3.33;;;8.80;99.90;;;;;;6204111;23;20158;-86
2023/04/08 09:07:35;;;;;;;3.13;2.80;;;8.60;99.90;;;;;;6204434;23;20190;-87
2023/04/08 09:10:02;;;;;;;2.90;2.60;;;8.40;99.90;;;;;;6203005;23;20190;-86
2023/04/08 09:12:28;;;;;;;5.70;3.57;;;8.40;99.90;;;;;;6204684;23;20186;-86
2023/04/08 09:15:07;;;;;;;5.83;3.10;;;8.50;99.90;;;;;;6227265;23;20565;-89
2023/04/08 09:17:40;;;;;;;8.93;2.93;;;8.70;99.90;;;;;;6228198;23;20206;-88
2023/04/08 09:20:11;;;;;;;3.40;2.60;;;8.50;99.90;;;;;;6203836;23;20181;-89
2023/04/08 09:22:58;;;;;;;4.90;3.17;;;8.40;99.90;;;;;;6205208;23;20193;-85
2023/04/08 09:25:32;;;;;;;6.13;3.47;;;8.30;99.90;;;;;;6203139;23;20202;-89
2023/04/08 09:27:58;;;;;;;2.20;2.10;;;8.30;99.90;;;;;;6227871;23;20653;-86
2023/04/08 09:30:25;;;;;;;6.67;3.60;;;8.20;99.90;;;;;;6204412;23;20190;-86
2023/04/08 09:32:55;;;;;;;7.03;4.27;;;8.10;99.90;;;;;;6203050;23;20269;-85
2023/04/08 09:35:22;;;;;;;6.57;3.87;;;8.10;99.90;;;;;;6202522;23;20154;-86
2023/04/08 09:37:48;;;;;;;5.20;3.93;;;8.20;99.90;;;;;;6228216;23;20202;-83
2023/04/08 09:40:16;;;;;;;6.07;3.13;;;8.40;99.90;;;;;;6227956;23;20540;-87
2023/04/08 09:42:52;;;;;;;5.47;3.57;;;8.50;99.90;;;;;;6203165;23;20219;-84
2023/04/08 09:45:19;;;;;;;6.13;4.63;;;8.70;99.90;;;;;;6227599;23;20276;-85
2023/04/08 09:48:02;;;;;;;7.63;5.27;;;8.80;99.90;;;;;;6227413;23;20698;-86
2023/04/08 09:50:31;;;;;;;4.57;3.43;;;8.90;99.90;;;;;;6204026;23;20173;-86
2023/04/08 09:53:08;;;;;;;5.77;4.37;;;8.90;99.90;;;;;;6228243;23;20215;-86
2023/04/08 09:55:36;;;;;;;4.10;2.97;;;8.80;99.90;;;;;;6203772;23;20205;-84
2023/04/08 09:58:15;;;;;;;4.10;2.80;;;8.60;99.90;;;;;;6202263;23;20263;-86
2023/04/08 10:00:49;;;;;;;9.07;4.67;;;8.40;99.90;;;;;;6204473;23;20197;-85
2023/04/08 10:03:20;;;;;;;3.00;2.60;;;8.40;99.90;;;;;;6203832;23;20192;-85
2023/04/08 10:05:47;;;;;;;3.13;2.73;;;8.40;99.90;;;;;;6204333;23;20688;-85
2023/04/08 10:08:14;;;;;;;9.97;4.07;;;8.30;99.90;;;;;;6228439;23;20161;-87
2023/04/08 10:10:41;;;;;;;4.73;3.37;;;8.10;99.90;;;;;;6204010;23;20197;-87
2023/04/08 10:13:08;;;;;;;4.60;2.43;;;8.30;99.90;;;;;;6204105;23;20649;-85
2023/04/08 10:15:39;;;;;;;3.83;2.47;;;8.50;99.90;;;;;;6203867;23;20281;-86
2023/04/08 10:18:08;;;;;;;4.47;2.47;;;8.50;99.90;;;;;;6203948;23;20688;-87
2023/04/08 10:20:33;;;;;;;3.40;3.03;;;8.50;99.90;;;;;;6227550;23;20198;-89
2023/04/08 10:23:00;;;;;;;4.63;3.07;;;8.60;99.90;;;;;;6230279;23;20164;-85
2023/04/08 10:25:34;;;;;;;5.17;3.53;;;8.40;99.90;;;;;;6206038;23;20641;-86
2023/04/08 10:28:23;;;;;;;4.37;2.80;;;8.50;99.90;;;;;;6229452;23;20724;-85
2023/04/08 10:30:54;;;;;;;4.43;4.03;;;8.70;99.90;;;;;;6197789;23;20652;-85
2023/04/08 10:33:36;;;;;;;6.03;4.87;;;8.60;99.90;;;;;;6229374;23;20281;-85
2023/04/08 10:36:10;;;;;;;5.03;3.33;;;8.60;99.90;;;;;;6205749;23;20202;-86
2023/04/08 10:38:37;;;;;;;5.97;3.53;;;8.60;99.90;;;;;;6206230;23;20150;-86
2023/04/08 10:41:03;;;;;;;4.23;3.87;;;8.70;99.90;;;;;;6207251;23;20158;-89
2023/04/08 10:43:33;;;;;;;4.30;3.10;;;8.90;99.90;;;;;;6205587;23;20209;-86
2023/04/08 10:46:00;;;;;;;3.93;3.43;;;8.90;99.90;;;;;;6204295;23;20457;-89
2023/04/08 10:48:27;;;;;;;7.23;4.23;;;8.80;99.90;;;;;;6204851;23;20614;-86
2023/04/08 10:50:56;;;;;;;2.90;2.70;;;8.90;99.90;;;;;;6206261;23;20190;-85
2023/04/08 10:53:38;;;;;;;6.80;2.53;;;8.70;99.90;;;;;;6206284;23;20154;-85
2023/04/08 10:56:15;;;;;;;4.50;3.17;;;8.70;99.90;;;;;;6206826;23;20299;-87
2023/04/08 10:58:55;;;;;;;4.90;4.47;;;8.70;99.90;;;;;;6230230;23;20200;-88
2023/04/08 11:01:21;;;;;;;4.57;3.17;;;8.80;99.90;;;;;;6229864;23;20198;-86
2023/04/08 11:03:48;;;;;;;8.93;4.70;;;9.10;99.90;;;;;;6206122;23;20655;-86
2023/04/08 11:06:14;;;;;;;3.50;3.20;;;9.00;99.90;;;;;;6206357;23;20194;-88
2023/04/08 11:08:40;;;;;;;9.33;4.57;;;9.00;99.90;;;;;;6205182;23;20190;-86
2023/04/08 11:11:10;;;;;;;3.70;2.87;;;9.00;99.90;;;;;;6205050;23;20169;-86
2023/04/08 11:13:41;;;;;;;4.37;3.63;;;9.10;99.90;;;;;;6204236;23;20200;-84
2023/04/08 11:16:07;;;;;;;5.37;3.73;;;9.00;99.90;;;;;;6178777;23;20212;-85
2023/04/08 11:18:34;;;;;;;5.27;3.60;;;9.10;99.90;;;;;;6203975;23;20194;-87
2023/04/08 11:21:01;;;;;;;4.00;3.67;;;9.10;99.90;;;;;;6200839;23;20629;-86
2023/04/08 11:23:27;;;;;;;3.73;2.93;;;9.00;99.90;;;;;;6205286;23;20224;-87
2023/04/08 11:25:53;;;;;;;4.13;3.50;;;9.00;99.90;;;;;;6206319;23;20162;-86
2023/04/08 11:28:20;;;;;;;5.27;3.47;;;9.00;99.90;;;;;;6229074;23;20217;-85
2023/04/08 11:30:47;;;;;;;4.33;2.43;;;8.90;99.90;;;;;;6203274;23;20216;-85
2023/04/08 11:33:13;;;;;;;5.33;3.13;;;8.90;99.90;;;;;;6205089;23;20197;-89
2023/04/08 11:35:40;;;;;;;4.93;3.60;;;9.00;99.90;;;;;;6204038;23;20198;-87
2023/04/08 11:38:08;;;;;;;4.67;2.87;;;9.10;99.90;;;;;;6206470;23;20150;-86
2023/04/08 11:40:33;;;;;;;12.93;4.33;;;9.20;99.90;;;;;;6206148;23;20198;-86
2023/04/08 11:43:12;;;;;;;6.00;3.63;;;9.20;99.90;;;;;;6229288;23;20217;-88
2023/04/08 11:45:41;;;;;;;3.93;3.60;;;9.10;99.90;;;;;;6205400;23;20186;-86
2023/04/08 11:48:10;;;;;;;5.80;3.37;;;9.10;99.90;;;;;;6204459;23;20189;-89
2023/04/08 11:50:36;;;;;;;9.40;3.67;;;9.00;99.90;;;;;;6205984;23;20604;-85
2023/04/08 11:53:02;;;;;;;8.97;5.00;;;9.10;99.90;;;;;;6229794;23;20237;-88
2023/04/08 11:55:32;;;;;;;14.60;4.53;;;9.20;99.90;;;;;;6229285;23;20704;-85
2023/04/08 11:58:06;;;;;;;5.33;3.17;;;9.20;99.90;;;;;;6228300;23;20708;-86
2023/04/08 12:00:33;;;;;;;6.53;4.00;;;9.20;99.90;;;;;;6204532;23;20186;-88
2023/04/08 12:02:58;;;;;;;5.97;3.47;;;9.10;99.90;;;;;;6178876;23;20276;-86
2023/04/08 12:05:24;;;;;;;9.87;3.73;;;9.10;99.90;;;;;;6203450;23;20564;-86
2023/04/08 12:07:50;;;;;;;7.87;4.00;;;9.10;99.90;;;;;;6204438;23;20158;-86
2023/04/08 12:10:16;;;;;;;5.10;3.03;;;9.10;99.90;;;;;;6228688;23;20517;-87
2023/04/08 12:12:42;;;;;;;6.60;3.67;;;9.10;99.90;;;;;;6203953;23;20221;-87
2023/04/08 12:15:08;;;;;;;5.10;4.67;;;9.10;99.90;;;;;;6218745;23;20452;-86
2023/04/08 12:17:34;;;;;;;5.67;4.07;;;9.20;99.90;;;;;;6177896;23;20208;-87
2023/04/08 12:20:01;;;;;;;7.83;3.97;;;9.10;99.90;;;;;;6203783;23;20241;-88
2023/04/08 12:22:26;;;;;;;7.57;5.13;;;9.20;99.90;;;;;;6205156;23;20722;-86
2023/04/08 12:24:52;;;;;;;8.90;5.13;;;9.20;99.90;;;;;;6204904;23;20206;-86
2023/04/08 12:27:18;;;;;;;5.10;3.90;;;9.00;99.90;;;;;;6203411;23;20696;-86
2023/04/08 12:29:44;;;;;;;9.33;6.17;;;9.30;99.90;;;;;;6205095;23;20213;-86
2023/04/08 12:32:11;;;;;;;10.47;5.70;;;9.20;99.90;;;;;;6179325;23;20640;-87
2023/04/08 12:34:36;;;;;;;5.27;4.30;;;9.10;99.90;;;;;;6205096;23;20194;-87
2023/04/08 12:37:05;;;;;;;11.23;4.00;;;9.00;99.90;;;;;;6203972;23;20202;-87
2023/04/08 12:39:31;;;;;;;8.47;4.80;;;9.20;99.90;;;;;;6205226;23;20225;-86
2023/04/08 12:41:57;;;;;;;9.40;4.63;;;9.20;99.90;;;;;;6204782;23;20669;-85
2023/04/08 12:44:25;;;;;;;6.73;4.03;;;9.20;99.90;;;;;;6227979;23;20158;-85
2023/04/08 12:46:50;;;;;;;9.33;3.67;;;9.10;99.90;;;;;;6229102;23;20162;-88
2023/04/08 12:49:16;;;;;;;6.90;4.90;;;9.10;99.90;;;;;;6178201;23;20935;-85
2023/04/08 12:51:48;;;;;;;6.53;3.37;;;9.10;99.90;;;;;;6203664;23;20197;-87
2023/04/08 12:54:14;;;;;;;7.63;4.90;;;9.10;99.90;;;;;;6204860;23;20256;-86
2023/04/08 12:56:42;;;;;;;10.40;5.13;;;9.00;99.90;;;;;;6228378;23;20372;-87